sensor_id;sensor_type;location;lat;lon;timestamp;P1;durP1;ratioP1;P2;durP2;ratioP2
69847;SDS011;57143;55.940;37.496;2023-10-13T00:00:28;5.35;;;0.70;;
69847;SDS011;57143;55.940;37.496;2023-10-13T00:03:01;7.78;;;0.80;;
69847;SDS011;57143;55.940;37.496;2023-10-13T00:05:29;5.10;;;1.00;;
69847;SDS011;57143;55.940;37.496;2023-10-13T00:07:58;5.28;;;1.00;;
69847;SDS011;57143;55.940;37.496;2023-10-13T00:10:27;4.90;;;0.90;;
69847;SDS011;57143;55.940;37.496;2023-10-13T00:12:55;5.00;;;0.88;;
69847;SDS011;57143;55.940;37.496;2023-10-13T00:15:31;4.68;;;0.95;;
69847;SDS011;57143;55.940;37.496;2023-10-13T00:18:05;6.22;;;0.68;;
69847;SDS011;57143;55.940;37.496;2023-10-13T00:20:39;8.30;;;0.90;;
69847;SDS011;57143;55.940;37.496;2023-10-13T00:23:14;7.30;;;0.90;;
69847;SDS011;57143;55.940;37.496;2023-10-13T00:25:46;4.57;;;0.90;;
69847;SDS011;57143;55.940;37.496;2023-10-13T00:28:23;7.22;;;0.90;;
69847;SDS011;57143;55.940;37.496;2023-10-13T00:30:52;6.20;;;1.02;;
69847;SDS011;57143;55.940;37.496;2023-10-13T00:33:25;6.15;;;0.90;;
69847;SDS011;57143;55.940;37.496;2023-10-13T00:35:53;4.17;;;1.00;;
69847;SDS011;57143;55.940;37.496;2023-10-13T00:38:25;7.43;;;1.10;;
69847;SDS011;57143;55.940;37.496;2023-10-13T00:40:52;4.90;;;1.17;;
69847;SDS011;57143;55.940;37.496;2023-10-13T00:43:21;7.28;;;0.90;;
69847;SDS011;57143;55.940;37.496;2023-10-13T00:45:58;4.03;;;0.60;;
69847;SDS011;57143;55.940;37.496;2023-10-13T00:48:34;5.20;;;1.00;;
69847;SDS011;57143;55.940;37.496;2023-10-13T00:51:08;6.13;;;0.80;;
69847;SDS011;57143;55.940;37.496;2023-10-13T00:53:45;7.82;;;0.90;;
69847;SDS011;57143;55.940;37.496;2023-10-13T00:56:13;6.57;;;0.77;;
69847;SDS011;57143;55.940;37.496;2023-10-13T00:58:53;4.65;;;0.85;;
69847;SDS011;57143;55.940;37.496;2023-10-13T01:01:20;6.57;;;0.77;;
69847;SDS011;57143;55.940;37.496;2023-10-13T01:03:55;6.45;;;1.02;;
69847;SDS011;57143;55.940;37.496;2023-10-13T01:06:25;6.00;;;1.67;;
69847;SDS011;57143;55.940;37.496;2023-10-13T01:08:58;8.05;;;1.05;;
69847;SDS011;57143;55.940;37.496;2023-10-13T01:11:37;4.88;;;0.60;;
69847;SDS011;57143;55.940;37.496;2023-10-13T01:14:03;6.80;;;1.10;;
69847;SDS011;57143;55.940;37.496;2023-10-13T01:16:31;5.78;;;0.70;;
69847;SDS011;57143;55.940;37.496;2023-10-13T01:18:58;8.20;;;1.10;;
69847;SDS011;57143;55.940;37.496;2023-10-13T01:21:30;5.90;;;0.70;;
69847;SDS011;57143;55.940;37.496;2023-10-13T01:24:00;5.68;;;0.88;;
69847;SDS011;57143;55.940;37.496;2023-10-13T01:26:33;4.77;;;0.70;;
69847;SDS011;57143;55.940;37.496;2023-10-13T01:29:04;6.10;;;0.70;;
69847;SDS011;57143;55.940;37.496;2023-10-13T01:31:40;4.70;;;0.77;;
69847;SDS011;57143;55.940;37.496;2023-10-13T01:34:14;5.25;;;0.70;;
69847;SDS011;57143;55.940;37.496;2023-10-13T01:36:47;4.03;;;0.60;;
69847;SDS011;57143;55.940;37.496;2023-10-13T01:39:17;4.17;;;0.57;;
69847;SDS011;57143;55.940;37.496;2023-10-13T01:41:46;8.25;;;0.60;;
69847;SDS011;57143;55.940;37.496;2023-10-13T01:44:19;4.10;;;0.70;;
69847;SDS011;57143;55.940;37.496;2023-10-13T01:46:46;5.28;;;0.52;;
69847;SDS011;57143;55.940;37.496;2023-10-13T01:49:13;4.25;;;0.70;;
69847;SDS011;57143;55.940;37.496;2023-10-13T01:51:41;4.43;;;0.60;;
69847;SDS011;57143;55.940;37.496;2023-10-13T01:54:08;5.65;;;0.80;;
69847;SDS011;57143;55.940;37.496;2023-10-13T01:56:39;5.28;;;0.77;;
69847;SDS011;57143;55.940;37.496;2023-10-13T01:59:08;3.78;;;0.70;;
69847;SDS011;57143;55.940;37.496;2023-10-13T02:01:35;5.55;;;0.80;;
69847;SDS011;57143;55.940;37.496;2023-10-13T02:04:02;4.67;;;0.70;;
69847;SDS011;57143;55.940;37.496;2023-10-13T02:06:30;5.85;;;0.70;;
69847;SDS011;57143;55.940;37.496;2023-10-13T02:08:58;4.97;;;0.93;;
69847;SDS011;57143;55.940;37.496;2023-10-13T02:11:37;3.80;;;0.60;;
69847;SDS011;57143;55.940;37.496;2023-10-13T02:14:07;6.50;;;0.70;;
69847;SDS011;57143;55.940;37.496;2023-10-13T02:16:36;5.60;;;1.00;;
69847;SDS011;57143;55.940;37.496;2023-10-13T02:19:03;3.72;;;0.60;;
69847;SDS011;57143;55.940;37.496;2023-10-13T02:21:31;3.92;;;0.50;;
69847;SDS011;57143;55.940;37.496;2023-10-13T02:23:57;4.25;;;0.80;;
69847;SDS011;57143;55.940;37.496;2023-10-13T02:26:29;3.78;;;0.90;;
69847;SDS011;57143;55.940;37.496;2023-10-13T02:28:59;3.90;;;0.70;;
69847;SDS011;57143;55.940;37.496;2023-10-13T02:31:30;4.70;;;0.63;;
69847;SDS011;57143;55.940;37.496;2023-10-13T02:33:56;7.38;;;0.80;;
69847;SDS011;57143;55.940;37.496;2023-10-13T02:36:25;4.82;;;0.70;;
69847;SDS011;57143;55.940;37.496;2023-10-13T02:39:02;4.63;;;0.68;;
69847;SDS011;57143;55.940;37.496;2023-10-13T02:41:33;6.83;;;0.80;;
69847;SDS011;57143;55.940;37.496;2023-10-13T02:44:04;5.82;;;1.10;;
69847;SDS011;57143;55.940;37.496;2023-10-13T02:46:33;5.28;;;0.80;;
69847;SDS011;57143;55.940;37.496;2023-10-13T02:49:01;7.30;;;0.90;;
69847;SDS011;57143;55.940;37.496;2023-10-13T02:51:35;6.90;;;1.00;;
69847;SDS011;57143;55.940;37.496;2023-10-13T02:54:04;6.83;;;1.17;;
69847;SDS011;57143;55.940;37.496;2023-10-13T02:56:36;7.68;;;0.93;;
69847;SDS011;57143;55.940;37.496;2023-10-13T02:59:05;6.55;;;1.08;;
69847;SDS011;57143;55.940;37.496;2023-10-13T03:01:34;6.57;;;1.20;;
69847;SDS011;57143;55.940;37.496;2023-10-13T03:04:02;5.45;;;0.75;;
69847;SDS011;57143;55.940;37.496;2023-10-13T03:06:34;8.23;;;1.10;;
69847;SDS011;57143;55.940;37.496;2023-10-13T03:09:02;7.85;;;0.98;;
69847;SDS011;57143;55.940;37.496;2023-10-13T03:11:40;9.75;;;1.25;;
69847;SDS011;57143;55.940;37.496;2023-10-13T03:14:09;7.22;;;1.58;;
69847;SDS011;57143;55.940;37.496;2023-10-13T03:16:50;8.63;;;0.93;;
69847;SDS011;57143;55.940;37.496;2023-10-13T03:19:18;7.43;;;1.20;;
69847;SDS011;57143;55.940;37.496;2023-10-13T03:21:44;5.70;;;1.02;;
69847;SDS011;57143;55.940;37.496;2023-10-13T03:24:20;7.30;;;0.98;;
69847;SDS011;57143;55.940;37.496;2023-10-13T03:26:58;6.35;;;1.05;;
69847;SDS011;57143;55.940;37.496;2023-10-13T03:29:35;8.05;;;1.05;;
69847;SDS011;57143;55.940;37.496;2023-10-13T03:32:04;6.77;;;1.17;;
69847;SDS011;57143;55.940;37.496;2023-10-13T03:34:37;4.28;;;0.63;;
69847;SDS011;57143;55.940;37.496;2023-10-13T03:37:15;7.78;;;1.15;;
69847;SDS011;57143;55.940;37.496;2023-10-13T03:39:52;7.95;;;0.90;;
69847;SDS011;57143;55.940;37.496;2023-10-13T03:42:20;3.80;;;0.80;;
69847;SDS011;57143;55.940;37.496;2023-10-13T03:44:51;5.80;;;0.93;;
69847;SDS011;57143;55.940;37.496;2023-10-13T03:47:20;4.82;;;1.00;;
69847;SDS011;57143;55.940;37.496;2023-10-13T03:49:57;3.78;;;0.75;;
69847;SDS011;57143;55.940;37.496;2023-10-13T03:52:38;5.30;;;1.00;;
69847;SDS011;57143;55.940;37.496;2023-10-13T03:55:06;7.03;;;1.30;;
69847;SDS011;57143;55.940;37.496;2023-10-13T03:57:42;6.03;;;1.07;;
69847;SDS011;57143;55.940;37.496;2023-10-13T04:00:13;6.47;;;0.90;;
69847;SDS011;57143;55.940;37.496;2023-10-13T04:02:47;8.40;;;0.85;;
69847;SDS011;57143;55.940;37.496;2023-10-13T04:05:20;6.90;;;0.98;;
69847;SDS011;57143;55.940;37.496;2023-10-13T04:08:02;9.20;;;1.30;;
69847;SDS011;57143;55.940;37.496;2023-10-13T04:10:49;11.03;;;1.60;;
69847;SDS011;57143;55.940;37.496;2023-10-13T04:13:33;6.60;;;1.48;;
69847;SDS011;57143;55.940;37.496;2023-10-13T04:16:19;7.97;;;1.20;;
69847;SDS011;57143;55.940;37.496;2023-10-13T04:19:00;5.75;;;1.33;;
69847;SDS011;57143;55.940;37.496;2023-10-13T04:21:45;7.65;;;1.08;;
69847;SDS011;57143;55.940;37.496;2023-10-13T04:24:23;8.07;;;1.20;;
69847;SDS011;57143;55.940;37.496;2023-10-13T04:27:20;5.88;;;1.08;;
69847;SDS011;57143;55.940;37.496;2023-10-13T04:30:10;11.00;;;1.30;;
69847;SDS011;57143;55.940;37.496;2023-10-13T04:32:44;6.07;;;1.23;;
69847;SDS011;57143;55.940;37.496;2023-10-13T04:35:31;6.32;;;1.20;;
69847;SDS011;57143;55.940;37.496;2023-10-13T04:38:12;5.60;;;0.97;;
69847;SDS011;57143;55.940;37.496;2023-10-13T04:40:45;8.85;;;1.20;;
69847;SDS011;57143;55.940;37.496;2023-10-13T04:43:24;5.82;;;1.17;;
69847;SDS011;57143;55.940;37.496;2023-10-13T04:46:19;7.43;;;1.45;;
69847;SDS011;57143;55.940;37.496;2023-10-13T04:49:02;6.32;;;0.95;;
69847;SDS011;57143;55.940;37.496;2023-10-13T04:51:36;7.73;;;1.00;;
69847;SDS011;57143;55.940;37.496;2023-10-13T04:54:24;5.80;;;0.80;;
69847;SDS011;57143;55.940;37.496;2023-10-13T04:57:11;7.43;;;1.30;;
69847;SDS011;57143;55.940;37.496;2023-10-13T04:59:49;5.75;;;1.15;;
69847;SDS011;57143;55.940;37.496;2023-10-13T05:02:34;8.13;;;1.20;;
69847;SDS011;57143;55.940;37.496;2023-10-13T05:05:22;7.13;;;1.00;;
69847;SDS011;57143;55.940;37.496;2023-10-13T05:08:11;4.28;;;0.60;;
69847;SDS011;57143;55.940;37.496;2023-10-13T05:10:55;5.40;;;1.10;;
69847;SDS011;57143;55.940;37.496;2023-10-13T05:13:40;5.93;;;0.90;;
69847;SDS011;57143;55.940;37.496;2023-10-13T05:16:32;6.57;;;1.13;;
69847;SDS011;57143;55.940;37.496;2023-10-13T05:19:17;5.70;;;1.17;;
69847;SDS011;57143;55.940;37.496;2023-10-13T05:22:03;6.75;;;1.20;;
69847;SDS011;57143;55.940;37.496;2023-10-13T05:24:47;3.08;;;0.60;;
69847;SDS011;57143;55.940;37.496;2023-10-13T05:27:32;6.00;;;0.60;;
69847;SDS011;57143;55.940;37.496;2023-10-13T05:30:16;6.22;;;1.20;;
69847;SDS011;57143;55.940;37.496;2023-10-13T05:33:01;7.00;;;0.80;;
69847;SDS011;57143;55.940;37.496;2023-10-13T05:35:46;9.02;;;1.60;;
69847;SDS011;57143;55.940;37.496;2023-10-13T05:38:31;5.10;;;0.95;;
69847;SDS011;57143;55.940;37.496;2023-10-13T05:41:16;6.25;;;1.00;;
69847;SDS011;57143;55.940;37.496;2023-10-13T05:44:00;7.15;;;1.02;;
69847;SDS011;57143;55.940;37.496;2023-10-13T05:46:44;6.17;;;0.90;;
69847;SDS011;57143;55.940;37.496;2023-10-13T05:49:48;5.25;;;1.17;;
69847;SDS011;57143;55.940;37.496;2023-10-13T05:52:30;5.03;;;0.90;;
69847;SDS011;57143;55.940;37.496;2023-10-13T05:55:25;6.50;;;1.48;;
69847;SDS011;57143;55.940;37.496;2023-10-13T05:58:11;5.68;;;0.80;;
69847;SDS011;57143;55.940;37.496;2023-10-13T06:00:56;5.93;;;0.80;;
69847;SDS011;57143;55.940;37.496;2023-10-13T06:03:41;4.57;;;1.23;;
69847;SDS011;57143;55.940;37.496;2023-10-13T06:06:25;5.88;;;0.90;;
69847;SDS011;57143;55.940;37.496;2023-10-13T06:09:10;4.40;;;0.82;;
69847;SDS011;57143;55.940;37.496;2023-10-13T06:11:56;5.50;;;1.10;;
69847;SDS011;57143;55.940;37.496;2023-10-13T06:14:44;5.37;;;0.90;;
69847;SDS011;57143;55.940;37.496;2023-10-13T06:17:30;5.72;;;0.80;;
69847;SDS011;57143;55.940;37.496;2023-10-13T06:20:26;4.45;;;0.80;;
69847;SDS011;57143;55.940;37.496;2023-10-13T06:23:11;6.68;;;0.90;;
69847;SDS011;57143;55.940;37.496;2023-10-13T06:25:55;4.78;;;1.10;;
69847;SDS011;57143;55.940;37.496;2023-10-13T06:28:41;6.10;;;1.00;;
69847;SDS011;57143;55.940;37.496;2023-10-13T06:31:11;4.90;;;0.90;;
69847;SDS011;57143;55.940;37.496;2023-10-13T06:33:47;4.38;;;1.00;;
69847;SDS011;57143;55.940;37.496;2023-10-13T06:36:14;4.72;;;0.90;;
69847;SDS011;57143;55.940;37.496;2023-10-13T06:38:43;6.03;;;0.95;;
69847;SDS011;57143;55.940;37.496;2023-10-13T06:41:18;4.50;;;0.80;;
69847;SDS011;57143;55.940;37.496;2023-10-13T06:43:57;5.60;;;1.00;;
69847;SDS011;57143;55.940;37.496;2023-10-13T06:46:30;8.38;;;1.00;;
69847;SDS011;57143;55.940;37.496;2023-10-13T06:48:59;5.10;;;0.90;;
69847;SDS011;57143;55.940;37.496;2023-10-13T06:51:28;3.28;;;0.50;;
69847;SDS011;57143;55.940;37.496;2023-10-13T06:54:03;3.97;;;1.00;;
69847;SDS011;57143;55.940;37.496;2023-10-13T06:56:36;4.18;;;0.90;;
69847;SDS011;57143;55.940;37.496;2023-10-13T06:59:06;5.45;;;0.98;;
69847;SDS011;57143;55.940;37.496;2023-10-13T07:01:34;3.08;;;0.60;;
69847;SDS011;57143;55.940;37.496;2023-10-13T07:04:06;4.90;;;0.90;;
69847;SDS011;57143;55.940;37.496;2023-10-13T07:06:39;4.40;;;0.80;;
69847;SDS011;57143;55.940;37.496;2023-10-13T07:09:14;3.17;;;0.50;;
69847;SDS011;57143;55.940;37.496;2023-10-13T07:12:05;5.43;;;0.60;;
69847;SDS011;57143;55.940;37.496;2023-10-13T07:14:46;4.85;;;1.00;;
69847;SDS011;57143;55.940;37.496;2023-10-13T07:17:19;4.95;;;0.90;;
69847;SDS011;57143;55.940;37.496;2023-10-13T07:19:50;6.40;;;0.63;;
69847;SDS011;57143;55.940;37.496;2023-10-13T07:22:29;3.50;;;0.60;;
69847;SDS011;57143;55.940;37.496;2023-10-13T07:24:56;3.75;;;0.75;;
69847;SDS011;57143;55.940;37.496;2023-10-13T07:27:23;5.68;;;0.88;;
69847;SDS011;57143;55.940;37.496;2023-10-13T07:29:53;6.47;;;0.73;;
69847;SDS011;57143;55.940;37.496;2023-10-13T07:32:39;5.43;;;0.60;;
69847;SDS011;57143;55.940;37.496;2023-10-13T07:35:11;4.30;;;0.77;;
69847;SDS011;57143;55.940;37.496;2023-10-13T07:37:38;4.18;;;0.60;;
69847;SDS011;57143;55.940;37.496;2023-10-13T07:40:07;3.20;;;0.70;;
69847;SDS011;57143;55.940;37.496;2023-10-13T07:42:48;3.63;;;0.50;;
69847;SDS011;57143;55.940;37.496;2023-10-13T07:45:17;7.10;;;1.00;;
69847;SDS011;57143;55.940;37.496;2023-10-13T07:47:50;3.20;;;0.50;;
69847;SDS011;57143;55.940;37.496;2023-10-13T07:50:17;3.92;;;0.70;;
69847;SDS011;57143;55.940;37.496;2023-10-13T07:52:50;4.65;;;0.65;;
69847;SDS011;57143;55.940;37.496;2023-10-13T07:55:30;5.28;;;1.00;;
69847;SDS011;57143;55.940;37.496;2023-10-13T07:57:59;2.77;;;0.57;;
69847;SDS011;57143;55.940;37.496;2023-10-13T08:00:34;3.95;;;0.63;;
69847;SDS011;57143;55.940;37.496;2023-10-13T08:03:19;4.28;;;0.80;;
69847;SDS011;57143;55.940;37.496;2023-10-13T08:06:03;3.47;;;0.70;;
69847;SDS011;57143;55.940;37.496;2023-10-13T08:08:45;3.55;;;0.80;;
69847;SDS011;57143;55.940;37.496;2023-10-13T08:11:16;6.27;;;0.80;;
69847;SDS011;57143;55.940;37.496;2023-10-13T08:13:52;5.15;;;0.82;;
69847;SDS011;57143;55.940;37.496;2023-10-13T08:16:23;5.90;;;0.75;;
69847;SDS011;57143;55.940;37.496;2023-10-13T08:18:55;5.97;;;1.20;;
69847;SDS011;57143;55.940;37.496;2023-10-13T08:21:27;4.57;;;0.85;;
69847;SDS011;57143;55.940;37.496;2023-10-13T08:23:57;5.53;;;0.80;;
69847;SDS011;57143;55.940;37.496;2023-10-13T08:26:31;5.43;;;1.23;;
69847;SDS011;57143;55.940;37.496;2023-10-13T08:29:11;6.10;;;1.10;;
69847;SDS011;57143;55.940;37.496;2023-10-13T08:31:57;6.82;;;1.27;;
69847;SDS011;57143;55.940;37.496;2023-10-13T08:34:40;6.78;;;1.30;;
69847;SDS011;57143;55.940;37.496;2023-10-13T08:37:26;6.47;;;1.40;;
69847;SDS011;57143;55.940;37.496;2023-10-13T08:39:58;5.90;;;0.90;;
69847;SDS011;57143;55.940;37.496;2023-10-13T08:42:48;6.30;;;1.60;;
69847;SDS011;57143;55.940;37.496;2023-10-13T08:45:37;6.57;;;2.00;;
69847;SDS011;57143;55.940;37.496;2023-10-13T08:48:25;5.72;;;1.80;;
69847;SDS011;57143;55.940;37.496;2023-10-13T08:51:02;6.40;;;2.17;;
69847;SDS011;57143;55.940;37.496;2023-10-13T08:53:39;8.00;;;2.33;;
69847;SDS011;57143;55.940;37.496;2023-10-13T08:56:17;6.60;;;2.15;;
69847;SDS011;57143;55.940;37.496;2023-10-13T08:58:44;7.18;;;1.70;;
69847;SDS011;57143;55.940;37.496;2023-10-13T09:01:30;7.63;;;1.40;;
69847;SDS011;57143;55.940;37.496;2023-10-13T09:04:06;4.13;;;1.00;;
69847;SDS011;57143;55.940;37.496;2023-10-13T09:06:49;4.97;;;1.23;;
69847;SDS011;57143;55.940;37.496;2023-10-13T09:09:45;5.55;;;1.25;;
69847;SDS011;57143;55.940;37.496;2023-10-13T09:12:25;5.70;;;1.27;;
69847;SDS011;57143;55.940;37.496;2023-10-13T09:15:05;7.50;;;1.95;;
69847;SDS011;57143;55.940;37.496;2023-10-13T09:17:44;6.10;;;1.60;;
69847;SDS011;57143;55.940;37.496;2023-10-13T09:20:28;6.07;;;1.40;;
69847;SDS011;57143;55.940;37.496;2023-10-13T09:23:08;5.90;;;1.35;;
69847;SDS011;57143;55.940;37.496;2023-10-13T09:25:38;7.13;;;1.30;;
69847;SDS011;57143;55.940;37.496;2023-10-13T09:28:20;4.18;;;0.68;;
69847;SDS011;57143;55.940;37.496;2023-10-13T09:30:50;4.03;;;0.73;;
69847;SDS011;57143;55.940;37.496;2023-10-13T09:33:21;4.18;;;0.85;;
69847;SDS011;57143;55.940;37.496;2023-10-13T09:36:00;3.67;;;0.82;;
69847;SDS011;57143;55.940;37.496;2023-10-13T09:38:26;5.50;;;0.90;;
69847;SDS011;57143;55.940;37.496;2023-10-13T09:40:54;4.20;;;0.60;;
69847;SDS011;57143;55.940;37.496;2023-10-13T09:43:27;3.80;;;0.60;;
69847;SDS011;57143;55.940;37.496;2023-10-13T09:45:57;4.50;;;0.80;;
69847;SDS011;57143;55.940;37.496;2023-10-13T09:48:32;7.35;;;0.70;;
69847;SDS011;57143;55.940;37.496;2023-10-13T09:51:04;4.45;;;0.80;;
69847;SDS011;57143;55.940;37.496;2023-10-13T09:53:34;3.05;;;0.57;;
69847;SDS011;57143;55.940;37.496;2023-10-13T09:56:06;3.93;;;0.60;;
69847;SDS011;57143;55.940;37.496;2023-10-13T09:58:44;3.25;;;0.70;;
69847;SDS011;57143;55.940;37.496;2023-10-13T10:01:17;6.28;;;0.75;;
69847;SDS011;57143;55.940;37.496;2023-10-13T10:04:09;5.32;;;0.80;;
69847;SDS011;57143;55.940;37.496;2023-10-13T10:06:41;3.50;;;0.80;;
69847;SDS011;57143;55.940;37.496;2023-10-13T10:09:19;4.23;;;0.70;;
69847;SDS011;57143;55.940;37.496;2023-10-13T10:12:16;2.88;;;0.50;;
69847;SDS011;57143;55.940;37.496;2023-10-13T10:15:06;4.30;;;0.70;;
69847;SDS011;57143;55.940;37.496;2023-10-13T10:17:39;4.13;;;0.85;;
69847;SDS011;57143;55.940;37.496;2023-10-13T10:20:09;4.82;;;1.00;;
69847;SDS011;57143;55.940;37.496;2023-10-13T10:22:59;4.50;;;1.13;;
69847;SDS011;57143;55.940;37.496;2023-10-13T10:25:30;4.85;;;0.68;;
69847;SDS011;57143;55.940;37.496;2023-10-13T10:28:01;3.13;;;0.52;;
69847;SDS011;57143;55.940;37.496;2023-10-13T10:30:31;4.35;;;0.80;;
69847;SDS011;57143;55.940;37.496;2023-10-13T10:33:00;3.47;;;0.60;;
69847;SDS011;57143;55.940;37.496;2023-10-13T10:35:33;4.97;;;0.70;;
69847;SDS011;57143;55.940;37.496;2023-10-13T10:38:11;6.65;;;0.77;;
69847;SDS011;57143;55.940;37.496;2023-10-13T10:40:50;6.22;;;1.00;;
69847;SDS011;57143;55.940;37.496;2023-10-13T10:43:23;3.15;;;0.60;;
69847;SDS011;57143;55.940;37.496;2023-10-13T10:45:55;5.07;;;0.68;;
69847;SDS011;57143;55.940;37.496;2023-10-13T10:48:26;4.47;;;0.67;;
69847;SDS011;57143;55.940;37.496;2023-10-13T10:50:59;4.25;;;0.68;;
69847;SDS011;57143;55.940;37.496;2023-10-13T10:53:34;7.88;;;0.95;;
69847;SDS011;57143;55.940;37.496;2023-10-13T10:56:10;3.63;;;0.70;;
69847;SDS011;57143;55.940;37.496;2023-10-13T10:58:50;5.70;;;0.90;;
69847;SDS011;57143;55.940;37.496;2023-10-13T11:01:26;6.23;;;0.80;;
69847;SDS011;57143;55.940;37.496;2023-10-13T11:03:59;3.60;;;0.60;;
69847;SDS011;57143;55.940;37.496;2023-10-13T11:06:33;3.92;;;0.90;;
69847;SDS011;57143;55.940;37.496;2023-10-13T11:09:08;3.90;;;0.90;;
69847;SDS011;57143;55.940;37.496;2023-10-13T11:11:46;4.90;;;0.63;;
69847;SDS011;57143;55.940;37.496;2023-10-13T11:14:21;3.03;;;0.60;;
69847;SDS011;57143;55.940;37.496;2023-10-13T11:16:52;3.45;;;0.60;;
69847;SDS011;57143;55.940;37.496;2023-10-13T11:19:20;2.55;;;0.50;;
69847;SDS011;57143;55.940;37.496;2023-10-13T11:21:53;3.95;;;0.70;;
69847;SDS011;57143;55.940;37.496;2023-10-13T11:24:22;3.92;;;0.65;;
69847;SDS011;57143;55.940;37.496;2023-10-13T11:26:50;5.77;;;0.60;;
69847;SDS011;57143;55.940;37.496;2023-10-13T11:29:30;3.70;;;0.57;;
69847;SDS011;57143;55.940;37.496;2023-10-13T11:31:59;4.05;;;0.88;;
69847;SDS011;57143;55.940;37.496;2023-10-13T11:34:28;3.05;;;0.68;;
69847;SDS011;57143;55.940;37.496;2023-10-13T11:37:05;4.90;;;0.70;;
69847;SDS011;57143;55.940;37.496;2023-10-13T11:39:48;4.00;;;0.53;;
69847;SDS011;57143;55.940;37.496;2023-10-13T11:42:17;6.05;;;0.60;;
69847;SDS011;57143;55.940;37.496;2023-10-13T11:44:44;6.45;;;0.70;;
69847;SDS011;57143;55.940;37.496;2023-10-13T11:47:13;4.88;;;0.70;;
69847;SDS011;57143;55.940;37.496;2023-10-13T11:49:57;6.47;;;0.60;;
69847;SDS011;57143;55.940;37.496;2023-10-13T11:52:25;4.43;;;0.80;;
69847;SDS011;57143;55.940;37.496;2023-10-13T11:54:57;5.30;;;0.80;;
69847;SDS011;57143;55.940;37.496;2023-10-13T11:57:24;3.53;;;0.50;;
69847;SDS011;57143;55.940;37.496;2023-10-13T11:59:51;4.47;;;0.70;;
69847;SDS011;57143;55.940;37.496;2023-10-13T12:02:44;4.72;;;0.88;;
69847;SDS011;57143;55.940;37.496;2023-10-13T12:05:31;3.27;;;0.87;;
69847;SDS011;57143;55.940;37.496;2023-10-13T12:08:14;4.43;;;0.70;;
69847;SDS011;57143;55.940;37.496;2023-10-13T12:10:49;4.22;;;0.70;;
69847;SDS011;57143;55.940;37.496;2023-10-13T12:13:25;7.18;;;0.70;;
69847;SDS011;57143;55.940;37.496;2023-10-13T12:15:53;5.32;;;0.63;;
69847;SDS011;57143;55.940;37.496;2023-10-13T12:18:22;4.13;;;0.63;;
69847;SDS011;57143;55.940;37.496;2023-10-13T12:20:53;4.35;;;0.60;;
69847;SDS011;57143;55.940;37.496;2023-10-13T12:23:22;4.82;;;0.80;;
69847;SDS011;57143;55.940;37.496;2023-10-13T12:25:58;5.70;;;0.70;;
69847;SDS011;57143;55.940;37.496;2023-10-13T12:28:26;2.90;;;0.60;;
69847;SDS011;57143;55.940;37.496;2023-10-13T12:30:55;3.13;;;0.60;;
69847;SDS011;57143;55.940;37.496;2023-10-13T12:33:24;4.00;;;0.70;;
69847;SDS011;57143;55.940;37.496;2023-10-13T12:35:56;3.25;;;0.70;;
69847;SDS011;57143;55.940;37.496;2023-10-13T12:38:35;4.35;;;0.80;;
69847;SDS011;57143;55.940;37.496;2023-10-13T12:41:18;3.58;;;0.70;;
69847;SDS011;57143;55.940;37.496;2023-10-13T12:44:04;3.67;;;0.60;;
69847;SDS011;57143;55.940;37.496;2023-10-13T12:46:49;4.85;;;0.90;;
69847;SDS011;57143;55.940;37.496;2023-10-13T12:49:34;5.93;;;0.85;;
69847;SDS011;57143;55.940;37.496;2023-10-13T12:52:23;3.97;;;0.60;;
69847;SDS011;57143;55.940;37.496;2023-10-13T12:54:58;4.22;;;0.73;;
69847;SDS011;57143;55.940;37.496;2023-10-13T12:57:33;4.03;;;0.80;;
69847;SDS011;57143;55.940;37.496;2023-10-13T13:00:10;3.88;;;0.90;;
69847;SDS011;57143;55.940;37.496;2023-10-13T13:02:58;4.50;;;0.90;;
69847;SDS011;57143;55.940;37.496;2023-10-13T13:05:36;4.35;;;0.80;;
69847;SDS011;57143;55.940;37.496;2023-10-13T13:08:10;5.50;;;0.70;;
69847;SDS011;57143;55.940;37.496;2023-10-13T13:10:47;3.53;;;0.60;;
69847;SDS011;57143;55.940;37.496;2023-10-13T13:13:16;4.43;;;1.13;;
69847;SDS011;57143;55.940;37.496;2023-10-13T13:15:49;6.25;;;1.00;;
69847;SDS011;57143;55.940;37.496;2023-10-13T13:18:17;3.28;;;0.63;;
69847;SDS011;57143;55.940;37.496;2023-10-13T13:20:45;6.28;;;0.90;;
69847;SDS011;57143;55.940;37.496;2023-10-13T13:23:19;4.57;;;0.70;;
69847;SDS011;57143;55.940;37.496;2023-10-13T13:25:51;6.50;;;0.80;;
69847;SDS011;57143;55.940;37.496;2023-10-13T13:28:20;4.30;;;0.85;;
69847;SDS011;57143;55.940;37.496;2023-10-13T13:30:50;6.50;;;0.80;;
69847;SDS011;57143;55.940;37.496;2023-10-13T13:33:19;4.32;;;1.00;;
69847;SDS011;57143;55.940;37.496;2023-10-13T13:35:52;5.63;;;0.87;;
69847;SDS011;57143;55.940;37.496;2023-10-13T13:38:20;4.75;;;0.98;;
69847;SDS011;57143;55.940;37.496;2023-10-13T13:40:52;5.65;;;0.85;;
69847;SDS011;57143;55.940;37.496;2023-10-13T13:43:22;3.88;;;0.90;;
69847;SDS011;57143;55.940;37.496;2023-10-13T13:46:16;5.55;;;0.70;;
69847;SDS011;57143;55.940;37.496;2023-10-13T13:48:44;4.80;;;0.87;;
69847;SDS011;57143;55.940;37.496;2023-10-13T13:51:13;4.43;;;1.00;;
69847;SDS011;57143;55.940;37.496;2023-10-13T13:53:41;5.85;;;1.00;;
69847;SDS011;57143;55.940;37.496;2023-10-13T13:56:10;5.72;;;1.20;;
69847;SDS011;57143;55.940;37.496;2023-10-13T13:58:43;5.25;;;1.08;;
69847;SDS011;57143;55.940;37.496;2023-10-13T14:01:10;6.73;;;1.30;;
69847;SDS011;57143;55.940;37.496;2023-10-13T14:03:41;9.10;;;1.00;;
69847;SDS011;57143;55.940;37.496;2023-10-13T14:06:11;4.90;;;0.90;;
69847;SDS011;57143;55.940;37.496;2023-10-13T14:08:43;6.28;;;0.93;;
69847;SDS011;57143;55.940;37.496;2023-10-13T14:11:14;9.00;;;1.10;;
69847;SDS011;57143;55.940;37.496;2023-10-13T14:14:10;6.33;;;1.17;;
69847;SDS011;57143;55.940;37.496;2023-10-13T14:16:38;6.57;;;1.20;;
69847;SDS011;57143;55.940;37.496;2023-10-13T14:19:10;5.40;;;1.15;;
69847;SDS011;57143;55.940;37.496;2023-10-13T14:21:37;6.53;;;1.48;;
69847;SDS011;57143;55.940;37.496;2023-10-13T14:24:05;7.35;;;0.90;;
69847;SDS011;57143;55.940;37.496;2023-10-13T14:26:39;6.53;;;1.10;;
69847;SDS011;57143;55.940;37.496;2023-10-13T14:29:10;6.30;;;1.23;;
69847;SDS011;57143;55.940;37.496;2023-10-13T14:31:40;8.23;;;1.38;;
69847;SDS011;57143;55.940;37.496;2023-10-13T14:34:09;5.70;;;1.38;;
69847;SDS011;57143;55.940;37.496;2023-10-13T14:36:36;8.25;;;1.30;;
69847;SDS011;57143;55.940;37.496;2023-10-13T14:39:04;9.33;;;1.67;;
69847;SDS011;57143;55.940;37.496;2023-10-13T14:41:34;6.93;;;0.90;;
69847;SDS011;57143;55.940;37.496;2023-10-13T14:44:03;9.95;;;1.20;;
69847;SDS011;57143;55.940;37.496;2023-10-13T14:46:33;11.10;;;1.40;;
69847;SDS011;57143;55.940;37.496;2023-10-13T14:49:05;8.93;;;1.20;;
69847;SDS011;57143;55.940;37.496;2023-10-13T14:51:33;9.07;;;1.83;;
69847;SDS011;57143;55.940;37.496;2023-10-13T14:54:05;6.20;;;1.10;;
69847;SDS011;57143;55.940;37.496;2023-10-13T14:56:32;9.73;;;1.52;;
69847;SDS011;57143;55.940;37.496;2023-10-13T14:59:00;5.45;;;1.00;;
69847;SDS011;57143;55.940;37.496;2023-10-13T15:01:30;5.68;;;1.10;;
69847;SDS011;57143;55.940;37.496;2023-10-13T15:03:58;7.33;;;1.40;;
69847;SDS011;57143;55.940;37.496;2023-10-13T15:06:26;6.40;;;1.40;;
69847;SDS011;57143;55.940;37.496;2023-10-13T15:08:56;10.60;;;1.30;;
69847;SDS011;57143;55.940;37.496;2023-10-13T15:11:29;8.20;;;1.40;;
69847;SDS011;57143;55.940;37.496;2023-10-13T15:14:02;7.82;;;1.45;;
69847;SDS011;57143;55.940;37.496;2023-10-13T15:16:32;7.37;;;1.63;;
69847;SDS011;57143;55.940;37.496;2023-10-13T15:19:02;9.70;;;1.65;;